Tucumcari Municipal Airport
KTCC : rendu visible

Aérodrome :











RETROUVEZ-NOUS SUR...

 
LOGIN :

S'inscrire | Disclaimer

   EN    FR    IT 

 









Légende :    VFR   VFR Marginal   IFR   IFR Intensif   IFR Très Intensif
Visi : 
Plafond : 
>= 8 km
>= 3000ft
5 à 8 km
1000 à 3000 ft
1500m à 5 km
500 à 1000 ft
800 à 1500m
200 à 500 ft
< 800m
< 200 ft
Symboles :   Orages  Brouillard  Fortes neiges  Fortes précipitations  Vent > 20 kt






- Altitude de l'aérodrome : 4065 ft


KTCC - Tucumcari Municipal

DERNIER METAR :
  • 240653Z AUTO 33004KT 9SM OVC015 13/11 A2978 RMK AO2 SLP053 T01330111 401330061

METARs EXPIRÉS :
  • 240553Z AUTO 21006KT 8SM OVC015 13/11 A2980 RMK AO2 SLP065 T01280111 10128 20106 58016
  • 240545Z AUTO 22003KT 9SM OVC015 13/11 A2980 RMK AO2 T01280111
  • 240522Z AUTO 08004KT 9SM OVC010 13/11 A2981 RMK AO2 T01280111
  • 240453Z AUTO 05005KT 9SM OVC008 12/11 A2982 RMK AO2 SLP074 T01220106

TAF KTCC
Valide du 24 à 06h jusqu'au 25 à 06h UTC


240531Z 2406/2506 21010KT P6SM OVC010
FM241200 23012KT P6SM SCT007 SCT200
FM241600 24018G30KT P6SM SCT080
FM242200 32022G32KT P6SM SCT060
FM250100 01014KT P6SM BKN050
FIR KZAB / Amérique du Nord



MET'MAP, la Météo Aéronautique d'un coup d'oeil ! - Copyright ORBIFLY Décembre 2007 - Disclaimer

ORBIFLY MET'MAP TEAM :

Programmation & Développement : Alexandra Zaïnal
Sur une idée originale de : Baudouin d'Aumeries
Assistance à la programmation : Marc-Olivier Méhu
Soutien technique & logistique : Manuel Goepfert

Contact : metmap@orbifly.com




SOURCES & CREDITS :

   NOAA       Earth
Advisory